Geneva, NY (14456)

3:56 PM EDT on August 30, 2015 (GMT -0400)
J MInns Farm | | Change Station
CLOSE
Current Station
Personal Weather Station
Location: Stanley, NY
Elevation: 833 ft
Nearby Weather Stations

Elev 833 ft 42.87 °N, 77.09 °W | Updated 60 seconds ago

Partly Cloudy
Partly Cloudy
79.8 °F
Feels Like 83 °F
N
3.0
Wind Variable Wind from West
Gusts 7.0 mph

Today
High -- | Low -- °F
--% Chance of Precip.
Yesterday
High -- | Low -- °F
Precip. -- in
6:30 AM 7:46 PM
Full, 98% visible
Pressure 30.04 in
Visibility 10.0 miles
Clouds Few 3600 ft
Few 4400 ft
Mostly Cloudy 8500 ft
Heat Index 83 °F
Dew Point 69 °F
Humidity 69%
Rainfall 0.00 in
Snow Depth Not available.
UV 3 out of 12
Pollen 9.80 out of 12
Air Quality Not available.
Flu Activity Not available.
METAR KPEO 301953Z AUTO 00000KT 10SM FEW036 FEW044 BKN085 27/18 A3005 RMK AO2 SLP170 T02670178
Pressure 30.04 in
Visibility 10.0 miles
Clouds Few 3600 ft
Few 4400 ft
Mostly Cloudy 8500 ft
Heat Index 83 °F
Dew Point 69 °F
Humidity 69%
Rainfall 0.00 in
Snow Depth Not available.
UV 3 out of 12
Pollen 9.80 out of 12
Air Quality Not available.
Flu Activity Not available.
METAR KPEO 301953Z AUTO 00000KT 10SM FEW036 FEW044 BKN085 27/18 A3005 RMK AO2 SLP170 T02670178

10-Day Weather Forecast

×

Almanac

Astronomy

Aug. 30, 2015 Rise Set
Actual Time
Civil Twilight
Nautical Twilight
Astronomical Twilight
Moon
Length of Visible Light
Length of Day
Tomorrow will be .
, % of the Moon is Illuminated

Today's Extremes

State Highs State Lows

Community

WunderPhotos

Upload Photos

1,851,041 photos uploaded!

WunderBlogs® & News

Nearby

Air Quality

  Air Quality AQ Index Pollutant
Not available.

Snow Depth

Station Depth Elevation

Earthquake Activity

City Distance Mag. Time & Date
Minimum magnitude displayed is 2.5.

Coastal Water Temperatures

Place Temperature

Stations

Nearby Weather Stations

Station Location Temp. Windchill Dew Point Humidity Wind Precip. Elev Updated Type